createdAt,value
2023-03-07T00:00:24.405Z,37.22
2023-03-07T00:02:52.384Z,38.13
2023-03-07T00:05:19.897Z,36.08
2023-03-07T00:07:47.606Z,35.33
2023-03-07T00:10:14.975Z,36.60
2023-03-07T00:12:42.413Z,37.90
2023-03-07T00:15:10.614Z,39.15
2023-03-07T00:17:38.863Z,32.33
2023-03-07T00:20:07.532Z,35.45
2023-03-07T00:22:35.631Z,36.50
2023-03-07T00:25:03.321Z,34.28
2023-03-07T00:27:31.995Z,34.72
2023-03-07T00:29:59.104Z,38.10
2023-03-07T00:32:27.188Z,35.47
2023-03-07T00:34:56.322Z,33.85
2023-03-07T00:37:24.030Z,34.70
2023-03-07T00:39:51.568Z,35.63
2023-03-07T00:42:18.838Z,32.95
2023-03-07T00:44:46.038Z,32.95
2023-03-07T00:47:13.216Z,34.70
2023-03-07T00:49:40.487Z,35.45
2023-03-07T00:52:07.944Z,36.35
2023-03-07T00:54:35.345Z,34.95
2023-03-07T00:57:02.967Z,37.70
2023-03-07T00:59:31.038Z,37.05
2023-03-07T01:01:58.330Z,34.55
2023-03-07T01:04:25.716Z,34.58
2023-03-07T01:06:53.085Z,39.10
2023-03-07T01:09:20.289Z,36.35
2023-03-07T01:11:49.834Z,35.80
2023-03-07T01:14:18.475Z,32.67
2023-03-07T01:16:45.878Z,31.63
2023-03-07T01:19:13.387Z,35.88
2023-03-07T01:21:42.772Z,37.75
2023-03-07T01:24:13.505Z,34.25
2023-03-07T01:26:42.295Z,32.28
2023-03-07T01:29:12.031Z,32.13
2023-03-07T01:31:39.539Z,37.47
2023-03-07T01:34:07.809Z,33.17
2023-03-07T01:36:37.794Z,35.78
2023-03-07T01:39:07.819Z,33.75
2023-03-07T01:41:38.691Z,33.00
2023-03-07T01:44:16.702Z,33.60
2023-03-07T01:46:48.287Z,35.63
2023-03-07T01:49:25.547Z,36.50
2023-03-07T01:52:02.724Z,36.95
2023-03-07T01:54:32.870Z,35.97
2023-03-07T01:57:03.987Z,32.97
2023-03-07T01:59:35.564Z,35.35
2023-03-07T02:02:10.357Z,34.47
2023-03-07T02:04:47.488Z,34.92
2023-03-07T02:07:16.701Z,35.33
2023-03-07T02:09:48.290Z,37.35
2023-03-07T02:12:16.222Z,36.67
2023-03-07T02:14:46.112Z,36.22
2023-03-07T02:17:15.039Z,34.40
2023-03-07T02:20:05.824Z,37.20
2023-03-07T02:22:33.437Z,34.72
2023-03-07T02:25:02.957Z,33.63
2023-03-07T02:27:36.710Z,38.13
2023-03-07T02:30:06.232Z,37.05
2023-03-07T02:32:33.583Z,35.20
2023-03-07T02:35:00.828Z,32.28
2023-03-07T02:37:33.685Z,35.60
2023-03-07T02:40:07.396Z,24.20
2023-03-07T02:42:41.888Z,36.30
2023-03-07T02:45:16.442Z,38.50
2023-03-07T02:47:45.080Z,39.78
2023-03-07T02:50:16.345Z,39.90
2023-03-07T02:52:46.963Z,43.40
2023-03-07T02:55:14.254Z,44.05
2023-03-07T02:57:48.130Z,40.35
2023-03-07T03:00:15.723Z,42.03
2023-03-07T03:02:43.214Z,42.10
2023-03-07T03:05:10.554Z,40.65
2023-03-07T03:07:38.249Z,41.10
2023-03-07T03:10:06.750Z,41.13
2023-03-07T03:12:34.359Z,47.55
2023-03-07T03:15:02.053Z,42.35
2023-03-07T03:17:29.275Z,44.97
2023-03-07T03:19:57.987Z,44.85
2023-03-07T03:22:25.158Z,41.20
2023-03-07T03:24:52.423Z,41.53
2023-03-07T03:27:20.842Z,42.00
2023-03-07T03:29:50.579Z,39.42
2023-03-07T03:32:18.188Z,48.28
2023-03-07T03:34:47.032Z,41.97
2023-03-07T03:37:14.436Z,43.10
2023-03-07T03:39:42.106Z,41.08
2023-03-07T03:42:09.732Z,41.40
2023-03-07T03:44:37.245Z,40.35
2023-03-07T03:47:04.946Z,42.33
2023-03-07T03:49:33.187Z,38.95
2023-03-07T03:52:00.443Z,39.22
2023-03-07T03:54:28.225Z,44.65
2023-03-07T03:56:57.867Z,38.85
2023-03-07T03:59:25.071Z,47.83
2023-03-07T04:01:52.765Z,46.00
2023-03-07T04:04:19.958Z,48.03
2023-03-07T04:06:47.565Z,43.17
2023-03-07T04:09:15.238Z,43.17
2023-03-07T04:11:46.386Z,42.45
2023-03-07T04:14:14.092Z,44.95
2023-03-07T04:16:41.425Z,42.50
2023-03-07T04:19:13.243Z,40.33
2023-03-07T04:21:42.833Z,45.72
2023-03-07T04:24:11.202Z,40.10
2023-03-07T04:26:38.709Z,42.50
2023-03-07T04:29:05.962Z,41.40
2023-03-07T04:31:43.845Z,39.05
2023-03-07T04:34:12.519Z,36.78
2023-03-07T04:36:40.175Z,40.38
2023-03-07T04:39:07.309Z,40.58
2023-03-07T04:41:35.516Z,36.28
2023-03-07T04:44:08.627Z,37.38
2023-03-07T04:46:35.882Z,38.40
2023-03-07T04:49:03.502Z,38.85
2023-03-07T04:51:30.648Z,38.15
2023-03-07T04:53:58.443Z,43.78
2023-03-07T04:56:26.172Z,41.45
2023-03-07T04:58:53.626Z,42.03
2023-03-07T05:01:20.920Z,42.90
2023-03-07T05:03:48.860Z,43.38
2023-03-07T05:06:19.193Z,42.95
2023-03-07T05:08:49.763Z,44.67
2023-03-07T05:11:17.404Z,42.60
2023-03-07T05:13:44.939Z,43.50
2023-03-07T05:16:18.021Z,37.90
2023-03-07T05:18:45.319Z,42.15
2023-03-07T05:21:13.280Z,36.35
2023-03-07T05:23:40.882Z,38.45
2023-03-07T05:26:09.574Z,38.72
2023-03-07T05:28:37.574Z,35.65
2023-03-07T05:31:05.198Z,41.15
2023-03-07T05:33:32.970Z,32.92
2023-03-07T05:36:01.469Z,38.55
2023-03-07T05:38:29.800Z,37.13
2023-03-07T05:40:57.042Z,38.88
2023-03-07T05:43:24.547Z,38.35
2023-03-07T05:45:53.047Z,40.25
2023-03-07T05:48:20.386Z,40.20
2023-03-07T05:50:47.766Z,43.15
2023-03-07T05:53:17.546Z,40.38
2023-03-07T05:55:45.488Z,37.67
2023-03-07T05:58:15.073Z,34.88
2023-03-07T06:00:44.388Z,38.80
2023-03-07T06:03:11.875Z,39.67
2023-03-07T06:05:39.377Z,39.85
2023-03-07T06:08:07.653Z,36.05
2023-03-07T06:10:37.316Z,33.90
2023-03-07T06:13:05.012Z,34.58
2023-03-07T06:15:32.253Z,36.25
2023-03-07T06:18:04.710Z,35.92
2023-03-07T06:20:31.995Z,37.65
2023-03-07T06:23:01.318Z,36.60
2023-03-07T06:25:28.863Z,36.88
2023-03-07T06:28:00.942Z,32.90
2023-03-07T06:30:30.438Z,34.25
2023-03-07T06:32:57.641Z,36.17
2023-03-07T06:35:25.046Z,34.30
2023-03-07T06:37:52.335Z,33.25
2023-03-07T06:40:19.792Z,38.80
2023-03-07T06:42:47.047Z,36.33
2023-03-07T06:45:14.588Z,36.47
2023-03-07T06:47:41.762Z,33.53
2023-03-07T06:50:10.910Z,36.70
2023-03-07T06:52:39.091Z,33.60
2023-03-07T06:55:06.930Z,33.20
2023-03-07T06:57:34.860Z,33.65
2023-03-07T07:00:05.549Z,30.15
2023-03-07T07:02:34.147Z,29.70
2023-03-07T07:05:03.481Z,30.23
2023-03-07T07:07:31.036Z,30.48
2023-03-07T07:09:59.476Z,34.42
2023-03-07T07:12:27.678Z,34.25
2023-03-07T07:14:55.549Z,32.15
2023-03-07T07:17:23.064Z,29.95
2023-03-07T07:19:50.475Z,28.08
2023-03-07T07:22:18.341Z,30.13
2023-03-07T07:24:45.656Z,27.63
2023-03-07T07:27:13.044Z,27.98
2023-03-07T07:29:40.769Z,28.67
2023-03-07T07:32:10.029Z,27.65
2023-03-07T07:34:37.380Z,27.13
2023-03-07T07:37:05.455Z,27.60
2023-03-07T07:39:32.797Z,28.70
2023-03-07T07:42:00.156Z,25.73
2023-03-07T07:44:31.646Z,25.15
2023-03-07T07:47:02.935Z,25.60
2023-03-07T07:49:30.473Z,27.17
2023-03-07T07:51:57.744Z,27.45
2023-03-07T07:54:25.663Z,31.45
2023-03-07T07:56:53.055Z,29.30
2023-03-07T07:59:22.028Z,29.67
2023-03-07T08:01:49.850Z,27.77
2023-03-07T08:04:17.011Z,30.98
2023-03-07T08:06:44.598Z,29.27
2023-03-07T08:09:12.332Z,26.65
2023-03-07T08:11:39.706Z,28.98
2023-03-07T08:14:07.110Z,28.60
2023-03-07T08:16:34.507Z,29.10
2023-03-07T08:19:01.754Z,31.38
2023-03-07T08:21:29.454Z,28.90
2023-03-07T08:23:57.321Z,29.08
2023-03-07T08:26:25.122Z,30.15
2023-03-07T08:28:52.581Z,26.45
2023-03-07T08:31:24.053Z,29.75
2023-03-07T08:33:51.750Z,30.63
2023-03-07T08:36:19.841Z,26.15
2023-03-07T08:38:51.752Z,30.42
2023-03-07T08:41:21.499Z,32.88
2023-03-07T08:43:49.614Z,28.45
2023-03-07T08:46:17.533Z,26.67
2023-03-07T08:48:45.237Z,29.52
2023-03-07T08:51:15.998Z,27.40
2023-03-07T08:53:44.882Z,30.33
2023-03-07T08:56:15.304Z,30.55
2023-03-07T08:58:42.784Z,30.45
2023-03-07T09:01:10.517Z,26.38
2023-03-07T09:03:37.795Z,29.63
2023-03-07T09:06:05.923Z,29.05
2023-03-07T09:08:33.267Z,24.98
2023-03-07T09:11:03.592Z,26.27
2023-03-07T09:13:36.240Z,27.58
2023-03-07T09:16:08.693Z,27.70
2023-03-07T09:18:36.594Z,23.77
2023-03-07T09:21:05.718Z,23.15
2023-03-07T09:23:33.546Z,25.90
2023-03-07T09:26:05.272Z,23.70
2023-03-07T09:28:32.745Z,20.92
2023-03-07T09:31:00.565Z,23.42
2023-03-07T09:33:28.010Z,24.95
2023-03-07T09:35:55.716Z,26.48
2023-03-07T09:38:23.093Z,23.98
2023-03-07T09:40:50.320Z,23.10
2023-03-07T09:43:21.371Z,25.13
2023-03-07T09:46:31.688Z,26.05
2023-03-07T09:49:14.310Z,28.75
2023-03-07T09:51:44.025Z,29.30
2023-03-07T09:54:19.071Z,27.85
2023-03-07T09:56:54.614Z,30.90
2023-03-07T09:59:24.074Z,26.75
2023-03-07T10:02:01.766Z,29.92
2023-03-07T10:04:43.331Z,31.55
2023-03-07T10:07:14.255Z,30.65
2023-03-07T10:09:44.055Z,26.08
2023-03-07T10:12:18.533Z,28.67
2023-03-07T10:14:54.965Z,33.40
2023-03-07T10:17:31.745Z,31.75
2023-03-07T10:20:25.346Z,31.92
2023-03-07T10:23:21.524Z,31.15
2023-03-07T10:25:56.258Z,32.55
2023-03-07T10:28:28.624Z,33.75
2023-03-07T10:31:13.949Z,31.13
2023-03-07T10:33:45.604Z,35.10
2023-03-07T10:36:19.958Z,35.28
2023-03-07T10:39:01.217Z,35.40
2023-03-07T10:41:29.945Z,39.17
2023-03-07T10:43:58.360Z,36.20
2023-03-07T10:46:31.049Z,40.10
2023-03-07T10:49:01.724Z,35.30
2023-03-07T10:51:56.580Z,40.55
2023-03-07T10:54:30.787Z,40.35
2023-03-07T10:57:17.389Z,44.45
2023-03-07T10:59:48.573Z,38.85
2023-03-07T11:02:45.549Z,36.03
2023-03-07T11:05:33.909Z,37.70
2023-03-07T11:08:20.418Z,39.03
2023-03-07T11:10:48.064Z,39.72
2023-03-07T11:13:18.753Z,37.00
2023-03-07T11:15:47.168Z,41.63
2023-03-07T11:18:38.957Z,38.40
2023-03-07T11:21:06.554Z,40.17
2023-03-07T11:23:33.868Z,40.63
2023-03-07T11:26:22.654Z,43.92
2023-03-07T11:29:05.391Z,43.45
2023-03-07T11:31:40.386Z,44.22
2023-03-07T11:34:25.473Z,44.63
2023-03-07T11:37:00.599Z,43.75
2023-03-07T11:39:30.090Z,41.10
2023-03-07T11:42:04.325Z,48.75
2023-03-07T11:44:32.568Z,46.80
2023-03-07T11:47:12.783Z,47.50
2023-03-07T11:49:41.063Z,46.67
2023-03-07T11:52:30.340Z,45.50
2023-03-07T11:55:17.342Z,46.53
2023-03-07T11:58:24.515Z,46.45
2023-03-07T12:01:16.897Z,50.22
2023-03-07T12:04:04.039Z,47.28
2023-03-07T12:06:51.108Z,48.70
2023-03-07T12:09:45.388Z,40.42
2023-03-07T12:12:47.197Z,48.60
2023-03-07T12:15:25.766Z,48.50
2023-03-07T12:18:21.961Z,52.58
2023-03-07T12:21:16.553Z,50.97
2023-03-07T12:23:49.928Z,39.38
2023-03-07T12:26:24.512Z,46.80
2023-03-07T12:29:03.323Z,47.10
2023-03-07T12:31:39.334Z,51.65
2023-03-07T12:34:20.233Z,47.88
2023-03-07T12:37:08.430Z,50.17
2023-03-07T12:39:58.519Z,53.13
2023-03-07T12:42:44.067Z,51.20
2023-03-07T12:45:15.218Z,56.78
2023-03-07T12:47:51.824Z,49.35
2023-03-07T12:50:44.178Z,52.55
2023-03-07T12:53:22.581Z,56.67
2023-03-07T12:56:02.852Z,57.75
2023-03-07T12:59:05.880Z,56.53
2023-03-07T13:01:38.368Z,55.67
2023-03-07T13:04:43.567Z,56.33
2023-03-07T13:07:13.497Z,54.30
2023-03-07T13:09:44.515Z,53.83
2023-03-07T13:12:16.577Z,57.30
2023-03-07T13:14:46.043Z,58.97
2023-03-07T13:17:33.757Z,51.67
2023-03-07T13:20:01.260Z,58.20
2023-03-07T13:22:28.473Z,57.70
2023-03-07T13:24:58.695Z,57.85
2023-03-07T13:27:31.263Z,54.17
2023-03-07T13:30:18.789Z,57.42
2023-03-07T13:32:49.650Z,51.05
2023-03-07T13:35:32.462Z,54.28
2023-03-07T13:38:19.714Z,60.72
2023-03-07T13:40:47.194Z,50.67
2023-03-07T13:43:30.048Z,55.03
2023-03-07T13:45:58.339Z,53.28
2023-03-07T13:48:29.501Z,51.72
2023-03-07T13:50:58.798Z,49.40
2023-03-07T13:53:41.848Z,59.63
2023-03-07T13:56:16.699Z,57.47
2023-03-07T13:58:56.060Z,61.90
2023-03-07T14:01:45.579Z,55.47
2023-03-07T14:04:41.074Z,58.15
2023-03-07T14:07:22.014Z,58.33
2023-03-07T14:09:53.858Z,53.72
2023-03-07T14:12:37.155Z,54.55
2023-03-07T14:15:24.336Z,59.17
2023-03-07T14:18:23.756Z,55.00
2023-03-07T14:21:20.223Z,65.30
2023-03-07T14:24:14.343Z,60.95
2023-03-07T14:26:49.866Z,59.67
2023-03-07T14:29:23.033Z,57.83
2023-03-07T14:31:53.649Z,62.25
2023-03-07T14:34:21.870Z,62.75
2023-03-07T14:37:07.770Z,66.55
2023-03-07T14:40:08.985Z,58.50
2023-03-07T14:42:36.461Z,59.08
2023-03-07T14:45:24.696Z,64.63
2023-03-07T14:48:12.908Z,60.28
2023-03-07T14:50:44.605Z,59.92
2023-03-07T14:53:20.907Z,59.40
2023-03-07T14:55:50.970Z,64.07
2023-03-07T14:58:22.087Z,65.93
2023-03-07T15:01:07.228Z,65.32
2023-03-07T15:03:34.515Z,63.03
2023-03-07T15:06:03.799Z,58.42
2023-03-07T15:08:35.484Z,64.07
2023-03-07T15:11:06.814Z,67.43
2023-03-07T15:14:13.840Z,69.05
2023-03-07T15:16:47.863Z,68.07
2023-03-07T15:19:34.614Z,71.95
2023-03-07T15:22:04.802Z,76.70
2023-03-07T15:24:44.629Z,63.50
2023-03-07T15:27:15.679Z,68.18
2023-03-07T15:29:48.455Z,68.82
2023-03-07T15:32:34.862Z,76.93
2023-03-07T15:35:08.016Z,70.10
2023-03-07T15:37:51.505Z,66.82
2023-03-07T15:40:26.103Z,65.60
2023-03-07T15:45:34.078Z,71.22
2023-03-07T15:48:09.224Z,75.80
2023-03-07T15:50:37.844Z,73.20
2023-03-07T15:53:10.448Z,64.25
2023-03-07T15:55:39.064Z,75.80
2023-03-07T15:58:13.977Z,67.63
2023-03-07T16:00:42.126Z,70.10
2023-03-07T16:03:25.369Z,76.78
2023-03-07T16:05:53.107Z,72.20
2023-03-07T16:08:21.269Z,72.25
2023-03-07T16:11:07.012Z,70.35
2023-03-07T16:13:42.076Z,79.22
2023-03-07T16:16:12.706Z,70.75
2023-03-07T16:18:40.953Z,72.00
2023-03-07T16:21:15.909Z,78.53
2023-03-07T16:23:43.954Z,79.85
2023-03-07T16:26:16.596Z,85.88
2023-03-07T16:28:44.318Z,77.97
2023-03-07T16:31:13.259Z,76.57
2023-03-07T16:33:40.750Z,78.68
2023-03-07T16:36:10.376Z,67.13
2023-03-07T16:38:38.060Z,73.55
2023-03-07T16:41:16.049Z,68.10
2023-03-07T16:43:44.576Z,76.18
2023-03-07T16:46:15.813Z,78.10
2023-03-07T16:48:44.033Z,78.43
2023-03-07T16:51:21.988Z,79.95
2023-03-07T16:53:51.383Z,81.60
2023-03-07T16:56:30.616Z,78.22
2023-03-07T16:59:00.152Z,87.47
2023-03-07T17:01:28.238Z,84.30
2023-03-07T17:03:56.713Z,83.25
2023-03-07T17:06:37.242Z,84.22
2023-03-07T17:09:09.671Z,80.05
2023-03-07T17:11:38.922Z,83.93
2023-03-07T17:14:08.984Z,76.60
2023-03-07T17:16:40.057Z,79.53
2023-03-07T17:19:08.182Z,81.45
2023-03-07T17:21:35.488Z,78.05
2023-03-07T17:24:02.610Z,92.32
2023-03-07T17:26:31.876Z,82.05
2023-03-07T17:29:02.815Z,90.00
2023-03-07T17:31:30.423Z,84.40
2023-03-07T17:33:57.849Z,80.15
2023-03-07T17:36:25.172Z,87.40
2023-03-07T17:38:52.781Z,83.18
2023-03-07T17:41:20.036Z,86.20
2023-03-07T17:43:47.682Z,81.07
2023-03-07T17:46:15.351Z,82.82
2023-03-07T17:48:42.581Z,86.00
2023-03-07T17:51:11.595Z,87.53
2023-03-07T17:53:39.155Z,81.68
2023-03-07T17:56:08.702Z,89.00
2023-03-07T17:58:36.403Z,93.80
2023-03-07T18:01:03.543Z,87.20
2023-03-07T18:03:30.953Z,92.18
2023-03-07T18:05:59.430Z,86.32
2023-03-07T18:08:28.789Z,89.63
2023-03-07T18:11:06.170Z,94.60
2023-03-07T18:13:33.636Z,98.90
2023-03-07T18:16:01.923Z,90.22
2023-03-07T18:18:33.451Z,90.95
2023-03-07T18:21:04.942Z,94.47
2023-03-07T18:23:33.718Z,91.15
2023-03-07T18:26:03.769Z,93.70
2023-03-07T18:28:31.355Z,92.60
2023-03-07T18:31:00.247Z,101.38
2023-03-07T18:33:29.360Z,97.60
2023-03-07T18:35:57.814Z,98.05
2023-03-07T18:38:26.129Z,94.53
2023-03-07T18:41:07.480Z,93.68
2023-03-07T18:43:34.825Z,104.53
2023-03-07T18:46:05.193Z,107.15
2023-03-07T18:48:36.567Z,102.65
2023-03-07T18:51:06.921Z,97.65
2023-03-07T18:53:36.203Z,92.72
2023-03-07T18:56:07.225Z,92.80
2023-03-07T18:58:34.593Z,85.45
2023-03-07T19:01:11.518Z,96.43
2023-03-07T19:03:38.935Z,96.65
2023-03-07T19:06:06.531Z,96.25
2023-03-07T19:08:34.228Z,101.03
2023-03-07T19:11:04.862Z,106.50
2023-03-07T19:13:32.506Z,102.10
2023-03-07T19:16:18.443Z,101.97
2023-03-07T19:18:46.424Z,109.07
2023-03-07T19:21:16.098Z,101.13
2023-03-07T19:23:43.245Z,106.28
2023-03-07T19:26:12.841Z,95.80
2023-03-07T19:28:40.760Z,104.57
2023-03-07T19:31:10.649Z,98.63
2023-03-07T19:33:38.384Z,101.68
2023-03-07T19:36:08.065Z,101.80
2023-03-07T19:38:35.868Z,95.50
2023-03-07T19:41:04.744Z,94.50
2023-03-07T19:43:32.235Z,101.72
2023-03-07T19:45:59.542Z,111.75
2023-03-07T19:48:27.602Z,106.50
2023-03-07T19:50:54.793Z,99.93
2023-03-07T19:53:22.139Z,98.60
2023-03-07T19:55:49.493Z,105.90
2023-03-07T19:58:16.858Z,94.93
2023-03-07T20:00:46.587Z,96.97
2023-03-07T20:03:17.164Z,90.43
2023-03-07T20:05:46.933Z,95.88
2023-03-07T20:08:14.890Z,92.05
2023-03-07T20:10:42.844Z,88.68
2023-03-07T20:13:10.100Z,90.13
2023-03-07T20:15:37.523Z,89.53
2023-03-07T20:18:06.117Z,89.20
2023-03-07T20:20:36.439Z,87.63
2023-03-07T20:23:03.632Z,82.25
2023-03-07T20:25:31.425Z,83.82
2023-03-07T20:27:58.585Z,90.05
2023-03-07T20:30:25.793Z,92.18
2023-03-07T20:32:53.261Z,82.03
2023-03-07T20:35:20.497Z,85.38
2023-03-07T20:37:47.715Z,77.45
2023-03-07T20:40:14.899Z,78.35
2023-03-07T20:42:42.101Z,75.63
2023-03-07T20:45:09.748Z,87.03
2023-03-07T20:47:38.596Z,75.95
2023-03-07T20:50:06.782Z,77.97
2023-03-07T20:52:36.513Z,80.47
2023-03-07T20:55:05.193Z,72.80
2023-03-07T20:57:32.628Z,79.93
2023-03-07T21:00:00.452Z,75.85
2023-03-07T21:02:27.864Z,76.57
2023-03-07T21:04:54.989Z,79.28
2023-03-07T21:07:22.198Z,77.60
2023-03-07T21:09:51.047Z,80.53
2023-03-07T21:12:18.420Z,77.82
2023-03-07T21:14:45.589Z,85.80
2023-03-07T21:17:13.569Z,73.80
2023-03-07T21:19:40.634Z,79.80
2023-03-07T21:22:07.874Z,83.60
2023-03-07T21:24:34.985Z,78.72
2023-03-07T21:27:02.370Z,88.93
2023-03-07T21:29:29.549Z,80.25
2023-03-07T21:31:56.662Z,78.13
2023-03-07T21:34:24.597Z,81.40
2023-03-07T21:36:56.387Z,74.68
2023-03-07T21:39:25.176Z,90.85
2023-03-07T21:41:52.322Z,79.20
2023-03-07T21:44:19.537Z,87.38
2023-03-07T21:46:46.840Z,88.05
2023-03-07T21:49:14.600Z,84.07
2023-03-07T21:51:41.840Z,88.63
2023-03-07T21:54:09.223Z,94.47
2023-03-07T21:56:36.559Z,90.47
2023-03-07T21:59:04.027Z,95.78
2023-03-07T22:01:31.316Z,93.05
2023-03-07T22:03:59.797Z,93.65
2023-03-07T22:06:28.444Z,90.22
2023-03-07T22:08:56.041Z,86.60
2023-03-07T22:11:23.403Z,87.97
2023-03-07T22:13:50.537Z,81.45
2023-03-07T22:16:20.837Z,82.43
2023-03-07T22:18:56.605Z,83.53
2023-03-07T22:21:26.976Z,82.00
2023-03-07T22:23:58.453Z,76.50
2023-03-07T22:26:25.863Z,83.10
2023-03-07T22:28:54.239Z,79.43
2023-03-07T22:31:21.649Z,79.10
2023-03-07T22:33:49.179Z,86.75
2023-03-07T22:36:16.902Z,87.80
2023-03-07T22:38:44.542Z,87.88
2023-03-07T22:41:16.177Z,81.75
2023-03-07T22:43:43.620Z,92.43
2023-03-07T22:46:11.367Z,81.15
2023-03-07T22:48:39.260Z,82.07
2023-03-07T22:51:13.709Z,78.10
2023-03-07T22:53:41.076Z,76.97
2023-03-07T22:56:16.623Z,81.65
2023-03-07T22:58:44.547Z,75.00
2023-03-07T23:01:17.094Z,87.97
2023-03-07T23:03:44.556Z,87.88
2023-03-07T23:06:12.152Z,88.55
2023-03-07T23:08:39.775Z,78.28
2023-03-07T23:11:09.117Z,75.60
2023-03-07T23:13:37.255Z,88.15
2023-03-07T23:16:10.412Z,84.03
2023-03-07T23:18:38.693Z,77.00
2023-03-07T23:21:07.856Z,85.28
2023-03-07T23:23:35.404Z,89.60
2023-03-07T23:26:03.175Z,81.88
2023-03-07T23:28:30.999Z,81.10
2023-03-07T23:30:58.693Z,87.47
2023-03-07T23:33:26.084Z,85.32
2023-03-07T23:35:53.508Z,75.90
2023-03-07T23:38:20.564Z,76.18
2023-03-07T23:40:47.886Z,76.65
2023-03-07T23:43:15.236Z,81.90
2023-03-07T23:45:42.448Z,80.22
2023-03-07T23:48:09.769Z,85.88
2023-03-07T23:50:38.241Z,75.43
2023-03-07T23:53:05.350Z,79.72
2023-03-07T23:55:32.952Z,75.45
2023-03-07T23:58:00.220Z,77.32
